sensor_id;sensor_type;location;lat;lon;timestamp;P1;durP1;ratioP1;P2;durP2;ratioP2
77864;SDS011;67061;48.524;9.040;2024-01-07T00:00:40;20.95;;;10.10;;
77864;SDS011;67061;48.524;9.040;2024-01-07T00:03:06;17.23;;;9.30;;
77864;SDS011;67061;48.524;9.040;2024-01-07T00:05:35;18.08;;;9.35;;
77864;SDS011;67061;48.524;9.040;2024-01-07T00:08:04;16.60;;;8.65;;
77864;SDS011;67061;48.524;9.040;2024-01-07T00:10:31;14.40;;;8.18;;
77864;SDS011;67061;48.524;9.040;2024-01-07T00:12:58;15.15;;;7.90;;
77864;SDS011;67061;48.524;9.040;2024-01-07T00:15:25;15.35;;;7.90;;
77864;SDS011;67061;48.524;9.040;2024-01-07T00:17:52;15.00;;;7.18;;
77864;SDS011;67061;48.524;9.040;2024-01-07T00:20:19;15.60;;;8.32;;
77864;SDS011;67061;48.524;9.040;2024-01-07T00:22:45;15.30;;;7.60;;
77864;SDS011;67061;48.524;9.040;2024-01-07T00:25:14;14.18;;;8.00;;
77864;SDS011;67061;48.524;9.040;2024-01-07T00:27:40;16.58;;;9.73;;
77864;SDS011;67061;48.524;9.040;2024-01-07T00:30:07;14.68;;;7.78;;
77864;SDS011;67061;48.524;9.040;2024-01-07T00:32:35;13.38;;;8.48;;
77864;SDS011;67061;48.524;9.040;2024-01-07T00:35:02;14.15;;;7.38;;
77864;SDS011;67061;48.524;9.040;2024-01-07T00:37:29;15.02;;;8.05;;
77864;SDS011;67061;48.524;9.040;2024-01-07T00:39:55;15.02;;;8.63;;
77864;SDS011;67061;48.524;9.040;2024-01-07T00:42:24;14.25;;;7.00;;
77864;SDS011;67061;48.524;9.040;2024-01-07T00:44:50;13.15;;;7.20;;
77864;SDS011;67061;48.524;9.040;2024-01-07T00:47:17;16.17;;;7.72;;
77864;SDS011;67061;48.524;9.040;2024-01-07T00:49:44;15.82;;;8.07;;
77864;SDS011;67061;48.524;9.040;2024-01-07T00:52:11;14.15;;;7.60;;
77864;SDS011;67061;48.524;9.040;2024-01-07T00:54:38;14.18;;;7.40;;
77864;SDS011;67061;48.524;9.040;2024-01-07T00:57:05;15.60;;;7.30;;
77864;SDS011;67061;48.524;9.040;2024-01-07T00:59:33;15.23;;;7.70;;
77864;SDS011;67061;48.524;9.040;2024-01-07T01:02:00;15.57;;;8.75;;
77864;SDS011;67061;48.524;9.040;2024-01-07T01:04:27;16.60;;;8.02;;
77864;SDS011;67061;48.524;9.040;2024-01-07T01:06:53;14.10;;;7.63;;
77864;SDS011;67061;48.524;9.040;2024-01-07T01:09:20;13.00;;;7.43;;
77864;SDS011;67061;48.524;9.040;2024-01-07T01:11:47;14.68;;;7.32;;
77864;SDS011;67061;48.524;9.040;2024-01-07T01:14:15;13.80;;;8.15;;
77864;SDS011;67061;48.524;9.040;2024-01-07T01:16:43;12.93;;;7.35;;
77864;SDS011;67061;48.524;9.040;2024-01-07T01:19:10;15.02;;;6.93;;
77864;SDS011;67061;48.524;9.040;2024-01-07T01:21:37;13.95;;;7.82;;
77864;SDS011;67061;48.524;9.040;2024-01-07T01:24:04;15.90;;;7.53;;
77864;SDS011;67061;48.524;9.040;2024-01-07T01:26:31;16.75;;;7.50;;
77864;SDS011;67061;48.524;9.040;2024-01-07T01:28:57;12.52;;;6.40;;
77864;SDS011;67061;48.524;9.040;2024-01-07T01:31:24;15.05;;;6.75;;
77864;SDS011;67061;48.524;9.040;2024-01-07T01:33:53;15.45;;;7.80;;
77864;SDS011;67061;48.524;9.040;2024-01-07T01:36:19;13.52;;;7.38;;
77864;SDS011;67061;48.524;9.040;2024-01-07T01:38:46;14.30;;;7.75;;
77864;SDS011;67061;48.524;9.040;2024-01-07T01:41:14;14.15;;;7.47;;
77864;SDS011;67061;48.524;9.040;2024-01-07T01:43:40;14.88;;;8.07;;
77864;SDS011;67061;48.524;9.040;2024-01-07T01:46:07;13.88;;;7.57;;
77864;SDS011;67061;48.524;9.040;2024-01-07T01:48:35;16.15;;;7.90;;
77864;SDS011;67061;48.524;9.040;2024-01-07T01:51:04;15.57;;;7.65;;
77864;SDS011;67061;48.524;9.040;2024-01-07T01:53:31;13.30;;;7.13;;
77864;SDS011;67061;48.524;9.040;2024-01-07T01:55:59;16.52;;;6.93;;
77864;SDS011;67061;48.524;9.040;2024-01-07T01:58:27;16.15;;;7.53;;
77864;SDS011;67061;48.524;9.040;2024-01-07T02:00:55;15.10;;;7.72;;
77864;SDS011;67061;48.524;9.040;2024-01-07T02:03:23;15.20;;;7.43;;
77864;SDS011;67061;48.524;9.040;2024-01-07T02:05:50;13.82;;;7.35;;
77864;SDS011;67061;48.524;9.040;2024-01-07T02:08:18;14.80;;;7.60;;
77864;SDS011;67061;48.524;9.040;2024-01-07T02:10:45;13.65;;;7.25;;
77864;SDS011;67061;48.524;9.040;2024-01-07T02:13:12;14.27;;;7.82;;
77864;SDS011;67061;48.524;9.040;2024-01-07T02:15:39;13.35;;;7.18;;
77864;SDS011;67061;48.524;9.040;2024-01-07T02:18:06;14.10;;;6.85;;
77864;SDS011;67061;48.524;9.040;2024-01-07T02:20:33;13.27;;;6.85;;
77864;SDS011;67061;48.524;9.040;2024-01-07T02:23:00;16.42;;;7.10;;
77864;SDS011;67061;48.524;9.040;2024-01-07T02:25:29;16.05;;;7.65;;
77864;SDS011;67061;48.524;9.040;2024-01-07T02:28:00;14.50;;;7.00;;
77864;SDS011;67061;48.524;9.040;2024-01-07T02:30:27;13.57;;;7.38;;
77864;SDS011;67061;48.524;9.040;2024-01-07T02:32:54;14.75;;;7.10;;
77864;SDS011;67061;48.524;9.040;2024-01-07T02:35:21;14.20;;;6.55;;
77864;SDS011;67061;48.524;9.040;2024-01-07T02:37:48;15.10;;;6.65;;
77864;SDS011;67061;48.524;9.040;2024-01-07T02:40:15;15.00;;;7.15;;
77864;SDS011;67061;48.524;9.040;2024-01-07T02:42:43;15.63;;;7.10;;
77864;SDS011;67061;48.524;9.040;2024-01-07T02:45:10;13.15;;;6.35;;
77864;SDS011;67061;48.524;9.040;2024-01-07T02:47:37;13.30;;;6.72;;
77864;SDS011;67061;48.524;9.040;2024-01-07T02:50:04;14.75;;;7.53;;
77864;SDS011;67061;48.524;9.040;2024-01-07T02:52:31;14.45;;;7.07;;
77864;SDS011;67061;48.524;9.040;2024-01-07T02:54:58;14.88;;;7.15;;
77864;SDS011;67061;48.524;9.040;2024-01-07T02:57:26;16.50;;;8.40;;
77864;SDS011;67061;48.524;9.040;2024-01-07T02:59:55;14.65;;;7.80;;
77864;SDS011;67061;48.524;9.040;2024-01-07T03:02:21;13.90;;;7.05;;
77864;SDS011;67061;48.524;9.040;2024-01-07T03:04:48;15.82;;;7.70;;
77864;SDS011;67061;48.524;9.040;2024-01-07T03:07:15;13.45;;;6.22;;
77864;SDS011;67061;48.524;9.040;2024-01-07T03:09:42;14.95;;;7.07;;
77864;SDS011;67061;48.524;9.040;2024-01-07T03:12:09;13.73;;;6.95;;
77864;SDS011;67061;48.524;9.040;2024-01-07T03:14:36;13.77;;;7.22;;
77864;SDS011;67061;48.524;9.040;2024-01-07T03:17:04;15.02;;;6.80;;
77864;SDS011;67061;48.524;9.040;2024-01-07T03:19:32;14.75;;;6.82;;
77864;SDS011;67061;48.524;9.040;2024-01-07T03:22:00;13.65;;;6.32;;
77864;SDS011;67061;48.524;9.040;2024-01-07T03:24:27;14.63;;;6.55;;
77864;SDS011;67061;48.524;9.040;2024-01-07T03:26:54;14.43;;;6.63;;
77864;SDS011;67061;48.524;9.040;2024-01-07T03:29:20;15.85;;;7.22;;
77864;SDS011;67061;48.524;9.040;2024-01-07T03:31:47;14.65;;;7.22;;
77864;SDS011;67061;48.524;9.040;2024-01-07T03:34:17;16.42;;;7.90;;
77864;SDS011;67061;48.524;9.040;2024-01-07T03:36:44;13.63;;;7.18;;
77864;SDS011;67061;48.524;9.040;2024-01-07T03:39:11;13.68;;;6.72;;
77864;SDS011;67061;48.524;9.040;2024-01-07T03:41:37;16.02;;;7.03;;
77864;SDS011;67061;48.524;9.040;2024-01-07T03:44:04;15.85;;;6.97;;
77864;SDS011;67061;48.524;9.040;2024-01-07T03:46:31;14.13;;;6.72;;
77864;SDS011;67061;48.524;9.040;2024-01-07T03:48:58;13.20;;;6.00;;
77864;SDS011;67061;48.524;9.040;2024-01-07T03:51:26;13.80;;;6.60;;
77864;SDS011;67061;48.524;9.040;2024-01-07T03:53:53;14.25;;;7.05;;
77864;SDS011;67061;48.524;9.040;2024-01-07T03:56:20;14.85;;;8.10;;
77864;SDS011;67061;48.524;9.040;2024-01-07T03:58:47;15.52;;;6.60;;
77864;SDS011;67061;48.524;9.040;2024-01-07T04:01:15;12.57;;;6.40;;
77864;SDS011;67061;48.524;9.040;2024-01-07T04:03:43;14.75;;;6.55;;
77864;SDS011;67061;48.524;9.040;2024-01-07T04:06:10;12.57;;;6.35;;
77864;SDS011;67061;48.524;9.040;2024-01-07T04:08:38;13.07;;;5.68;;
77864;SDS011;67061;48.524;9.040;2024-01-07T04:11:05;15.13;;;6.65;;
77864;SDS011;67061;48.524;9.040;2024-01-07T04:13:31;12.90;;;6.20;;
77864;SDS011;67061;48.524;9.040;2024-01-07T04:15:58;13.05;;;6.28;;
77864;SDS011;67061;48.524;9.040;2024-01-07T04:18:25;12.63;;;6.03;;
77864;SDS011;67061;48.524;9.040;2024-01-07T04:20:52;10.88;;;5.95;;
77864;SDS011;67061;48.524;9.040;2024-01-07T04:23:19;12.65;;;6.43;;
77864;SDS011;67061;48.524;9.040;2024-01-07T04:25:47;13.43;;;6.40;;
77864;SDS011;67061;48.524;9.040;2024-01-07T04:28:14;12.80;;;6.53;;
77864;SDS011;67061;48.524;9.040;2024-01-07T04:30:41;11.80;;;5.97;;
77864;SDS011;67061;48.524;9.040;2024-01-07T04:33:08;14.80;;;6.63;;
77864;SDS011;67061;48.524;9.040;2024-01-07T04:35:34;14.82;;;6.82;;
77864;SDS011;67061;48.524;9.040;2024-01-07T04:38:01;15.85;;;6.93;;
77864;SDS011;67061;48.524;9.040;2024-01-07T04:40:28;12.25;;;6.15;;
77864;SDS011;67061;48.524;9.040;2024-01-07T04:42:56;13.23;;;7.32;;
77864;SDS011;67061;48.524;9.040;2024-01-07T04:45:23;13.20;;;6.38;;
77864;SDS011;67061;48.524;9.040;2024-01-07T04:47:50;13.23;;;6.88;;
77864;SDS011;67061;48.524;9.040;2024-01-07T04:50:17;13.68;;;7.47;;
77864;SDS011;67061;48.524;9.040;2024-01-07T04:52:45;13.77;;;7.18;;
77864;SDS011;67061;48.524;9.040;2024-01-07T04:55:12;15.85;;;7.20;;
77864;SDS011;67061;48.524;9.040;2024-01-07T04:57:39;14.07;;;7.45;;
77864;SDS011;67061;48.524;9.040;2024-01-07T05:00:08;15.25;;;8.05;;
77864;SDS011;67061;48.524;9.040;2024-01-07T05:02:35;15.63;;;7.60;;
77864;SDS011;67061;48.524;9.040;2024-01-07T05:05:01;14.32;;;7.65;;
77864;SDS011;67061;48.524;9.040;2024-01-07T05:07:28;16.27;;;8.82;;
77864;SDS011;67061;48.524;9.040;2024-01-07T05:09:55;14.80;;;8.13;;
77864;SDS011;67061;48.524;9.040;2024-01-07T05:12:22;13.80;;;7.35;;
77864;SDS011;67061;48.524;9.040;2024-01-07T05:14:50;14.15;;;7.10;;
77864;SDS011;67061;48.524;9.040;2024-01-07T05:17:18;13.63;;;7.30;;
77864;SDS011;67061;48.524;9.040;2024-01-07T05:19:45;14.50;;;7.50;;
77864;SDS011;67061;48.524;9.040;2024-01-07T05:22:12;15.23;;;7.68;;
77864;SDS011;67061;48.524;9.040;2024-01-07T05:24:39;14.95;;;7.45;;
77864;SDS011;67061;48.524;9.040;2024-01-07T05:27:06;14.05;;;7.90;;
77864;SDS011;67061;48.524;9.040;2024-01-07T05:29:33;14.77;;;7.68;;
77864;SDS011;67061;48.524;9.040;2024-01-07T05:31:59;13.25;;;8.05;;
77864;SDS011;67061;48.524;9.040;2024-01-07T05:34:29;16.13;;;8.52;;
77864;SDS011;67061;48.524;9.040;2024-01-07T05:36:56;14.93;;;7.85;;
77864;SDS011;67061;48.524;9.040;2024-01-07T05:39:23;13.55;;;6.95;;
77864;SDS011;67061;48.524;9.040;2024-01-07T05:41:50;16.13;;;8.63;;
77864;SDS011;67061;48.524;9.040;2024-01-07T05:44:16;13.85;;;7.13;;
77864;SDS011;67061;48.524;9.040;2024-01-07T05:46:43;14.05;;;7.75;;
77864;SDS011;67061;48.524;9.040;2024-01-07T05:49:10;14.48;;;7.78;;
77864;SDS011;67061;48.524;9.040;2024-01-07T05:51:40;14.30;;;7.30;;
77864;SDS011;67061;48.524;9.040;2024-01-07T05:54:07;15.73;;;9.25;;
77864;SDS011;67061;48.524;9.040;2024-01-07T05:56:37;14.65;;;6.93;;
77864;SDS011;67061;48.524;9.040;2024-01-07T05:59:05;15.63;;;8.88;;
77864;SDS011;67061;48.524;9.040;2024-01-07T06:01:32;13.90;;;7.70;;
77864;SDS011;67061;48.524;9.040;2024-01-07T06:04:00;14.18;;;7.75;;
77864;SDS011;67061;48.524;9.040;2024-01-07T06:06:27;14.18;;;7.82;;
77864;SDS011;67061;48.524;9.040;2024-01-07T06:08:55;13.85;;;7.78;;
77864;SDS011;67061;48.524;9.040;2024-01-07T06:11:22;12.35;;;7.32;;
77864;SDS011;67061;48.524;9.040;2024-01-07T06:13:49;14.52;;;8.27;;
77864;SDS011;67061;48.524;9.040;2024-01-07T06:16:16;14.80;;;8.40;;
77864;SDS011;67061;48.524;9.040;2024-01-07T06:18:42;15.68;;;8.23;;
77864;SDS011;67061;48.524;9.040;2024-01-07T06:21:09;15.38;;;8.25;;
77864;SDS011;67061;48.524;9.040;2024-01-07T06:23:36;13.50;;;7.82;;
77864;SDS011;67061;48.524;9.040;2024-01-07T06:26:04;15.88;;;7.72;;
77864;SDS011;67061;48.524;9.040;2024-01-07T06:28:31;14.23;;;8.75;;
77864;SDS011;67061;48.524;9.040;2024-01-07T06:30:59;12.65;;;7.50;;
77864;SDS011;67061;48.524;9.040;2024-01-07T06:33:28;13.57;;;7.93;;
77864;SDS011;67061;48.524;9.040;2024-01-07T06:35:55;13.18;;;8.30;;
77864;SDS011;67061;48.524;9.040;2024-01-07T06:38:22;14.15;;;7.45;;
77864;SDS011;67061;48.524;9.040;2024-01-07T06:40:49;15.27;;;8.90;;
77864;SDS011;67061;48.524;9.040;2024-01-07T06:43:17;14.15;;;7.85;;
77864;SDS011;67061;48.524;9.040;2024-01-07T06:45:44;14.27;;;8.40;;
77864;SDS011;67061;48.524;9.040;2024-01-07T06:48:11;13.93;;;7.57;;
77864;SDS011;67061;48.524;9.040;2024-01-07T06:50:38;13.95;;;7.90;;
77864;SDS011;67061;48.524;9.040;2024-01-07T06:53:05;16.67;;;8.18;;
77864;SDS011;67061;48.524;9.040;2024-01-07T06:55:32;13.90;;;8.52;;
77864;SDS011;67061;48.524;9.040;2024-01-07T06:57:59;13.18;;;8.38;;
77864;SDS011;67061;48.524;9.040;2024-01-07T07:00:27;13.57;;;7.57;;
77864;SDS011;67061;48.524;9.040;2024-01-07T07:02:54;12.93;;;7.30;;
77864;SDS011;67061;48.524;9.040;2024-01-07T07:05:21;13.93;;;7.88;;
77864;SDS011;67061;48.524;9.040;2024-01-07T07:07:48;14.23;;;7.85;;
77864;SDS011;67061;48.524;9.040;2024-01-07T07:10:14;15.05;;;8.23;;
77864;SDS011;67061;48.524;9.040;2024-01-07T07:12:41;13.98;;;8.27;;
77864;SDS011;67061;48.524;9.040;2024-01-07T07:15:08;13.77;;;8.10;;
77864;SDS011;67061;48.524;9.040;2024-01-07T07:17:37;13.65;;;8.35;;
77864;SDS011;67061;48.524;9.040;2024-01-07T07:20:05;13.85;;;7.50;;
77864;SDS011;67061;48.524;9.040;2024-01-07T07:22:33;14.73;;;7.97;;
77864;SDS011;67061;48.524;9.040;2024-01-07T07:24:59;14.57;;;8.43;;
77864;SDS011;67061;48.524;9.040;2024-01-07T07:27:27;16.58;;;9.65;;
77864;SDS011;67061;48.524;9.040;2024-01-07T07:29:54;14.13;;;8.00;;
77864;SDS011;67061;48.524;9.040;2024-01-07T07:32:21;13.95;;;8.27;;
77864;SDS011;67061;48.524;9.040;2024-01-07T07:34:49;16.83;;;9.35;;
77864;SDS011;67061;48.524;9.040;2024-01-07T07:37:16;14.27;;;8.38;;
77864;SDS011;67061;48.524;9.040;2024-01-07T07:39:43;16.38;;;9.45;;
77864;SDS011;67061;48.524;9.040;2024-01-07T07:42:10;18.00;;;9.43;;
77864;SDS011;67061;48.524;9.040;2024-01-07T07:44:37;16.67;;;8.98;;
77864;SDS011;67061;48.524;9.040;2024-01-07T07:47:04;16.42;;;9.02;;
77864;SDS011;67061;48.524;9.040;2024-01-07T07:49:32;14.07;;;8.30;;
77864;SDS011;67061;48.524;9.040;2024-01-07T07:52:02;16.25;;;9.52;;
77864;SDS011;67061;48.524;9.040;2024-01-07T07:54:29;15.05;;;9.63;;
77864;SDS011;67061;48.524;9.040;2024-01-07T07:56:56;15.80;;;9.23;;
77864;SDS011;67061;48.524;9.040;2024-01-07T07:59:23;13.93;;;8.88;;
77864;SDS011;67061;48.524;9.040;2024-01-07T08:01:50;16.70;;;9.23;;
77864;SDS011;67061;48.524;9.040;2024-01-07T08:04:17;16.20;;;9.15;;
77864;SDS011;67061;48.524;9.040;2024-01-07T08:06:43;15.98;;;8.93;;
77864;SDS011;67061;48.524;9.040;2024-01-07T08:09:12;14.95;;;8.38;;
77864;SDS011;67061;48.524;9.040;2024-01-07T08:11:39;15.07;;;8.93;;
77864;SDS011;67061;48.524;9.040;2024-01-07T08:14:06;14.90;;;8.68;;
77864;SDS011;67061;48.524;9.040;2024-01-07T08:16:34;15.40;;;9.60;;
77864;SDS011;67061;48.524;9.040;2024-01-07T08:19:01;14.73;;;8.93;;
77864;SDS011;67061;48.524;9.040;2024-01-07T08:21:28;17.92;;;9.18;;
77864;SDS011;67061;48.524;9.040;2024-01-07T08:23:54;16.27;;;9.07;;
77864;SDS011;67061;48.524;9.040;2024-01-07T08:26:23;16.40;;;9.57;;
77864;SDS011;67061;48.524;9.040;2024-01-07T08:28:49;14.32;;;8.60;;
77864;SDS011;67061;48.524;9.040;2024-01-07T08:31:17;14.95;;;8.68;;
77864;SDS011;67061;48.524;9.040;2024-01-07T08:33:44;14.93;;;7.88;;
77864;SDS011;67061;48.524;9.040;2024-01-07T08:36:11;15.40;;;8.70;;
77864;SDS011;67061;48.524;9.040;2024-01-07T08:38:38;14.23;;;8.20;;
77864;SDS011;67061;48.524;9.040;2024-01-07T08:41:05;12.23;;;7.40;;
77864;SDS011;67061;48.524;9.040;2024-01-07T08:43:34;12.82;;;7.32;;
77864;SDS011;67061;48.524;9.040;2024-01-07T08:46:02;14.93;;;8.68;;
77864;SDS011;67061;48.524;9.040;2024-01-07T08:48:30;12.80;;;7.18;;
77864;SDS011;67061;48.524;9.040;2024-01-07T08:50:57;12.55;;;6.85;;
77864;SDS011;67061;48.524;9.040;2024-01-07T08:53:24;13.93;;;8.45;;
77864;SDS011;67061;48.524;9.040;2024-01-07T08:55:51;14.90;;;8.27;;
77864;SDS011;67061;48.524;9.040;2024-01-07T08:58:18;12.27;;;7.55;;
77864;SDS011;67061;48.524;9.040;2024-01-07T09:00:46;12.98;;;8.10;;
77864;SDS011;67061;48.524;9.040;2024-01-07T09:03:13;13.00;;;7.90;;
77864;SDS011;67061;48.524;9.040;2024-01-07T09:05:40;13.20;;;7.80;;
77864;SDS011;67061;48.524;9.040;2024-01-07T09:08:07;14.70;;;7.88;;
77864;SDS011;67061;48.524;9.040;2024-01-07T09:10:36;13.35;;;7.68;;
77864;SDS011;67061;48.524;9.040;2024-01-07T09:13:03;13.55;;;8.40;;
77864;SDS011;67061;48.524;9.040;2024-01-07T09:15:30;15.63;;;7.93;;
77864;SDS011;67061;48.524;9.040;2024-01-07T09:17:58;13.00;;;7.22;;
77864;SDS011;67061;48.524;9.040;2024-01-07T09:20:25;13.27;;;7.28;;
77864;SDS011;67061;48.524;9.040;2024-01-07T09:22:52;12.40;;;7.47;;
77864;SDS011;67061;48.524;9.040;2024-01-07T09:25:19;11.43;;;7.43;;
77864;SDS011;67061;48.524;9.040;2024-01-07T09:27:45;14.10;;;6.75;;
77864;SDS011;67061;48.524;9.040;2024-01-07T09:30:13;12.93;;;6.43;;
77864;SDS011;67061;48.524;9.040;2024-01-07T09:32:40;14.20;;;8.65;;
77864;SDS011;67061;48.524;9.040;2024-01-07T09:35:09;10.80;;;6.28;;
77864;SDS011;67061;48.524;9.040;2024-01-07T09:37:36;12.25;;;7.32;;
77864;SDS011;67061;48.524;9.040;2024-01-07T09:40:03;12.27;;;6.47;;
77864;SDS011;67061;48.524;9.040;2024-01-07T09:42:31;11.18;;;6.55;;
77864;SDS011;67061;48.524;9.040;2024-01-07T09:44:59;11.32;;;6.38;;
77864;SDS011;67061;48.524;9.040;2024-01-07T09:47:29;11.80;;;6.43;;
77864;SDS011;67061;48.524;9.040;2024-01-07T09:49:56;11.52;;;6.35;;
77864;SDS011;67061;48.524;9.040;2024-01-07T09:52:25;12.07;;;6.45;;
77864;SDS011;67061;48.524;9.040;2024-01-07T09:54:56;11.50;;;6.72;;
77864;SDS011;67061;48.524;9.040;2024-01-07T09:57:25;14.15;;;6.95;;
77864;SDS011;67061;48.524;9.040;2024-01-07T09:59:53;10.65;;;5.85;;
77864;SDS011;67061;48.524;9.040;2024-01-07T10:02:19;10.75;;;6.78;;
77864;SDS011;67061;48.524;9.040;2024-01-07T10:04:47;12.48;;;7.05;;
77864;SDS011;67061;48.524;9.040;2024-01-07T10:07:15;14.15;;;6.93;;
77864;SDS011;67061;48.524;9.040;2024-01-07T10:09:43;11.30;;;6.68;;
77864;SDS011;67061;48.524;9.040;2024-01-07T10:12:10;10.18;;;5.90;;
77864;SDS011;67061;48.524;9.040;2024-01-07T10:14:38;12.07;;;7.07;;
77864;SDS011;67061;48.524;9.040;2024-01-07T10:17:13;11.75;;;6.53;;
77864;SDS011;67061;48.524;9.040;2024-01-07T10:19:43;11.35;;;6.43;;
77864;SDS011;67061;48.524;9.040;2024-01-07T10:22:11;11.10;;;6.32;;
77864;SDS011;67061;48.524;9.040;2024-01-07T10:24:39;11.55;;;5.85;;
77864;SDS011;67061;48.524;9.040;2024-01-07T10:27:08;11.95;;;5.47;;
77864;SDS011;67061;48.524;9.040;2024-01-07T10:29:36;10.88;;;5.78;;
77864;SDS011;67061;48.524;9.040;2024-01-07T10:32:03;10.77;;;6.03;;
77864;SDS011;67061;48.524;9.040;2024-01-07T10:34:31;10.20;;;5.50;;
77864;SDS011;67061;48.524;9.040;2024-01-07T10:36:59;10.88;;;6.97;;
77864;SDS011;67061;48.524;9.040;2024-01-07T10:39:26;8.77;;;4.95;;
77864;SDS011;67061;48.524;9.040;2024-01-07T10:41:54;9.30;;;4.88;;
77864;SDS011;67061;48.524;9.040;2024-01-07T10:44:24;9.25;;;4.60;;
77864;SDS011;67061;48.524;9.040;2024-01-07T10:46:53;8.50;;;4.75;;
77864;SDS011;67061;48.524;9.040;2024-01-07T10:49:22;9.73;;;5.03;;
77864;SDS011;67061;48.524;9.040;2024-01-07T10:51:51;8.65;;;4.93;;
77864;SDS011;67061;48.524;9.040;2024-01-07T10:54:30;8.82;;;4.82;;
77864;SDS011;67061;48.524;9.040;2024-01-07T10:56:59;8.65;;;4.70;;
77864;SDS011;67061;48.524;9.040;2024-01-07T10:59:32;7.97;;;4.82;;
77864;SDS011;67061;48.524;9.040;2024-01-07T11:04:30;10.02;;;4.45;;
77864;SDS011;67061;48.524;9.040;2024-01-07T11:07:03;9.10;;;4.65;;
77864;SDS011;67061;48.524;9.040;2024-01-07T11:09:50;8.02;;;4.30;;
77864;SDS011;67061;48.524;9.040;2024-01-07T11:12:22;8.30;;;4.90;;
77864;SDS011;67061;48.524;9.040;2024-01-07T11:14:50;8.95;;;4.65;;
77864;SDS011;67061;48.524;9.040;2024-01-07T11:20:12;7.90;;;4.70;;
77864;SDS011;67061;48.524;9.040;2024-01-07T11:22:44;9.40;;;4.93;;
77864;SDS011;67061;48.524;9.040;2024-01-07T11:25:27;8.48;;;4.35;;
77864;SDS011;67061;48.524;9.040;2024-01-07T11:27:55;8.52;;;4.45;;
77864;SDS011;67061;48.524;9.040;2024-01-07T11:30:24;7.68;;;4.03;;
77864;SDS011;67061;48.524;9.040;2024-01-07T11:32:56;10.88;;;4.65;;
77864;SDS011;67061;48.524;9.040;2024-01-07T11:38:21;7.55;;;3.65;;
77864;SDS011;67061;48.524;9.040;2024-01-07T11:40:49;8.13;;;4.25;;
77864;SDS011;67061;48.524;9.040;2024-01-07T11:43:17;8.30;;;4.40;;
77864;SDS011;67061;48.524;9.040;2024-01-07T11:45:45;8.00;;;4.38;;
77864;SDS011;67061;48.524;9.040;2024-01-07T11:48:12;7.55;;;4.00;;
77864;SDS011;67061;48.524;9.040;2024-01-07T11:50:39;9.48;;;5.13;;
77864;SDS011;67061;48.524;9.040;2024-01-07T11:53:06;10.25;;;6.38;;
77864;SDS011;67061;48.524;9.040;2024-01-07T11:55:34;9.82;;;5.53;;
77864;SDS011;67061;48.524;9.040;2024-01-07T11:58:02;8.85;;;5.30;;
77864;SDS011;67061;48.524;9.040;2024-01-07T12:00:30;8.85;;;5.20;;
77864;SDS011;67061;48.524;9.040;2024-01-07T12:03:00;9.40;;;5.38;;
77864;SDS011;67061;48.524;9.040;2024-01-07T12:05:27;9.10;;;4.80;;
77864;SDS011;67061;48.524;9.040;2024-01-07T12:07:54;9.20;;;5.13;;
77864;SDS011;67061;48.524;9.040;2024-01-07T12:10:22;9.73;;;5.03;;
77864;SDS011;67061;48.524;9.040;2024-01-07T12:12:49;9.90;;;5.25;;
77864;SDS011;67061;48.524;9.040;2024-01-07T12:15:17;10.00;;;5.25;;
77864;SDS011;67061;48.524;9.040;2024-01-07T12:17:48;9.65;;;4.88;;
77864;SDS011;67061;48.524;9.040;2024-01-07T12:20:24;9.15;;;4.80;;
77864;SDS011;67061;48.524;9.040;2024-01-07T12:22:51;10.50;;;4.60;;
77864;SDS011;67061;48.524;9.040;2024-01-07T12:25:21;8.02;;;4.55;;
77864;SDS011;67061;48.524;9.040;2024-01-07T12:27:49;8.10;;;4.63;;
77864;SDS011;67061;48.524;9.040;2024-01-07T12:30:18;8.82;;;5.20;;
77864;SDS011;67061;48.524;9.040;2024-01-07T12:32:46;8.07;;;4.35;;
77864;SDS011;67061;48.524;9.040;2024-01-07T12:35:13;9.85;;;5.20;;
77864;SDS011;67061;48.524;9.040;2024-01-07T12:37:41;9.18;;;5.05;;
77864;SDS011;67061;48.524;9.040;2024-01-07T12:40:09;9.63;;;5.22;;
77864;SDS011;67061;48.524;9.040;2024-01-07T12:42:37;9.60;;;4.78;;
77864;SDS011;67061;48.524;9.040;2024-01-07T12:45:09;9.25;;;4.63;;
77864;SDS011;67061;48.524;9.040;2024-01-07T12:47:37;8.82;;;4.82;;
77864;SDS011;67061;48.524;9.040;2024-01-07T12:50:04;9.10;;;5.07;;
77864;SDS011;67061;48.524;9.040;2024-01-07T12:52:31;7.28;;;4.05;;
77864;SDS011;67061;48.524;9.040;2024-01-07T12:54:59;10.02;;;5.75;;
77864;SDS011;67061;48.524;9.040;2024-01-07T12:57:26;8.10;;;5.00;;
77864;SDS011;67061;48.524;9.040;2024-01-07T12:59:53;8.10;;;4.82;;
77864;SDS011;67061;48.524;9.040;2024-01-07T13:02:20;9.32;;;5.25;;
77864;SDS011;67061;48.524;9.040;2024-01-07T13:04:47;8.40;;;4.80;;
77864;SDS011;67061;48.524;9.040;2024-01-07T13:07:14;8.63;;;6.13;;
77864;SDS011;67061;48.524;9.040;2024-01-07T13:09:41;10.25;;;6.32;;
77864;SDS011;67061;48.524;9.040;2024-01-07T13:12:11;8.73;;;4.57;;
77864;SDS011;67061;48.524;9.040;2024-01-07T13:14:38;9.55;;;5.55;;
77864;SDS011;67061;48.524;9.040;2024-01-07T13:17:07;10.95;;;6.15;;
77864;SDS011;67061;48.524;9.040;2024-01-07T13:19:35;11.07;;;6.88;;
77864;SDS011;67061;48.524;9.040;2024-01-07T13:22:02;9.32;;;5.40;;
77864;SDS011;67061;48.524;9.040;2024-01-07T13:24:29;11.25;;;7.43;;
77864;SDS011;67061;48.524;9.040;2024-01-07T13:26:55;10.40;;;6.28;;
77864;SDS011;67061;48.524;9.040;2024-01-07T13:29:24;10.32;;;5.88;;
77864;SDS011;67061;48.524;9.040;2024-01-07T13:31:51;9.80;;;6.20;;
77864;SDS011;67061;48.524;9.040;2024-01-07T13:34:18;10.73;;;5.95;;
77864;SDS011;67061;48.524;9.040;2024-01-07T13:36:45;9.57;;;5.07;;
77864;SDS011;67061;48.524;9.040;2024-01-07T13:39:12;11.95;;;6.60;;
77864;SDS011;67061;48.524;9.040;2024-01-07T13:41:41;10.15;;;5.90;;
77864;SDS011;67061;48.524;9.040;2024-01-07T13:44:08;8.90;;;5.90;;
77864;SDS011;67061;48.524;9.040;2024-01-07T13:46:43;10.68;;;6.10;;
77864;SDS011;67061;48.524;9.040;2024-01-07T13:49:12;9.85;;;5.60;;
77864;SDS011;67061;48.524;9.040;2024-01-07T13:51:39;11.27;;;6.22;;
77864;SDS011;67061;48.524;9.040;2024-01-07T13:54:06;11.93;;;6.18;;
77864;SDS011;67061;48.524;9.040;2024-01-07T13:56:35;10.95;;;6.57;;
77864;SDS011;67061;48.524;9.040;2024-01-07T13:59:03;11.57;;;6.20;;
77864;SDS011;67061;48.524;9.040;2024-01-07T14:01:30;11.10;;;6.13;;
77864;SDS011;67061;48.524;9.040;2024-01-07T14:03:58;11.63;;;6.75;;
77864;SDS011;67061;48.524;9.040;2024-01-07T14:06:25;11.40;;;6.03;;
77864;SDS011;67061;48.524;9.040;2024-01-07T14:08:52;11.30;;;6.38;;
77864;SDS011;67061;48.524;9.040;2024-01-07T14:11:19;11.27;;;7.28;;
77864;SDS011;67061;48.524;9.040;2024-01-07T14:13:46;13.05;;;7.45;;
77864;SDS011;67061;48.524;9.040;2024-01-07T14:16:13;11.55;;;6.82;;
77864;SDS011;67061;48.524;9.040;2024-01-07T14:18:40;10.82;;;6.20;;
77864;SDS011;67061;48.524;9.040;2024-01-07T14:21:08;10.18;;;6.15;;
77864;SDS011;67061;48.524;9.040;2024-01-07T14:23:35;11.40;;;6.30;;
77864;SDS011;67061;48.524;9.040;2024-01-07T14:26:02;11.77;;;5.95;;
77864;SDS011;67061;48.524;9.040;2024-01-07T14:28:29;11.10;;;6.45;;
77864;SDS011;67061;48.524;9.040;2024-01-07T14:30:56;11.85;;;5.93;;
77864;SDS011;67061;48.524;9.040;2024-01-07T14:33:24;11.35;;;6.47;;
77864;SDS011;67061;48.524;9.040;2024-01-07T14:35:50;11.77;;;6.53;;
77864;SDS011;67061;48.524;9.040;2024-01-07T14:38:18;11.13;;;6.47;;
77864;SDS011;67061;48.524;9.040;2024-01-07T14:40:45;10.38;;;6.10;;
77864;SDS011;67061;48.524;9.040;2024-01-07T14:43:12;11.32;;;7.07;;
77864;SDS011;67061;48.524;9.040;2024-01-07T14:45:39;11.18;;;6.35;;